Main page
METAR-TAF:

METAR-TAF

Airports :

Majuro, Majuro Atoll, Marshall Islands

Marshall Islands International Airport

latitude: 07-04N, longitude: 171-17E, elevation: 2 m

Current weather observation

The report was made 1 hour and 4 minutes ago, at 10:50 UTC
Wind 8 kt from the Southwest
Temperature 27°C
Humidity 84%
Pressure 1010 hPa
Visibility: 24.1 km
Few clouds at a height of 1400 ft
Scattered clouds at a height of 5000 ft
Broken clouds at a height of 12000 ft
Overcast at a height of 30000 ft

METAR: PKMJ 201050Z 22008KT 15SM FEW014 SCT050 BKN120 OVC300 27/24 A2983 RMK LAST

Time: 23:54 (11:54 UTC)

Forecast

The report was made 29 minutes ago, at 11:25 UTC
Forecast valid from 20 at 12 UTC to 21 at 12 UTC
Wind 6 kt from the East/Northeast
Visibility: 10 km
Scattered clouds at a height of 1400 ft
Broken clouds at a height of 5000 ft
Broken clouds at a height of 11000 ft
showers in vicinity

TAF: PKMJ 201125Z 2012/2112 06006KT P6SM VCSH SCT014 BKN050 BKN110

Weather observations and forecasts of more than 4000 airports (METAR and TAF reports).

The available stations are represented by yellow and red dots on the map.

Hover mouse over dot to see the name of the station.

Then click to see weather observations and forecasts.

To change the map : click on the green buttons with a black cross to zoom in, on the green button with a dash to zoom out, or on the green arrows for adjacent maps.


METAR-TAF: